This is the latest recevied weather packets stored in our database for station/object KJ4AJP. If no packets are shown the sender has not sent any weather packets the latest 10 day(s).
| Time | Temp. | Humidity | Pressure | Rain* | Wind** | Luminosity | Snow |
|---|---|---|---|---|---|---|---|
| 1777318747 | 28.33° C | 66% | 1009.1 hPa | 0 mm | - | 233 W/m² | - |
| 1777318443 | 28.89° C | 66% | 1009.2 hPa | 0 mm | - | 346 W/m² | - |
| 1777318140 | 28.89° C | 66% | 1009.4 hPa | 0 mm | - | 239 W/m² | - |
| 1777317837 | 27.78° C | 69% | 1009.3 hPa | 0 mm | - | 583 W/m² | - |
| 1777317534 | 28.33° C | 69% | 1009.4 hPa | 0 mm | - | 248 W/m² | - |
| 1777317231 | 28.33° C | 68% | 1009.2 hPa | 0 mm | - | 313 W/m² | - |
| 1777316926 | 27.78° C | 70% | 1009.5 hPa | 0 mm | - | 324 W/m² | - |
| 1777316624 | 27.22° C | 70% | 1009.6 hPa | 0 mm | - | 181 W/m² | - |
| 1777316320 | 27.78° C | 69% | 1009.5 hPa | 0 mm | - | 290 W/m² | - |
| 1777316018 | 28.33° C | 69% | 1009.6 hPa | 0 mm | - | 282 W/m² | - |
| 1777315717 | 28.33° C | 69% | 1009.5 hPa | 0 mm | - | 768 W/m² | - |
| 1777315413 | 28.33° C | 70% | 1009.5 hPa | 0 mm | - | 296 W/m² | - |
| 1777315112 | 27.78° C | 69% | 1009.6 hPa | 0 mm | - | 762 W/m² | - |
| 1777314807 | 27.78° C | 70% | 1009.7 hPa | 0 mm | - | 324 W/m² | - |
| 1777314504 | 28.33° C | 68% | 1009.8 hPa | 0 mm | - | 587 W/m² | - |
| 1777314200 | 28.33° C | 69% | 1009.8 hPa | 0 mm | - | 808 W/m² | - |
| 1777313899 | 28.33° C | 68% | 1009.8 hPa | 0 mm | - | 657 W/m² | - |
| 1777313595 | 27.78° C | 71% | 1010.2 hPa | 0 mm | - | 745 W/m² | - |
| 1777313294 | 27.78° C | 70% | 1010.2 hPa | 0 mm | - | 779 W/m² | - |
| 1777312989 | 27.22° C | 72% | 1010.3 hPa | 0 mm | - | 786 W/m² | - |
| 1777312686 | 27.22° C | 71% | 1010.4 hPa | 0 mm | - | 747 W/m² | - |
| 1777312382 | 27.22° C | 72% | 1010.5 hPa | 0 mm | - | 617 W/m² | - |
| 1777312080 | 27.22° C | 72% | 1010.6 hPa | 0 mm | - | 392 W/m² | - |
| 1777311777 | 27.22° C | 71% | 1010.8 hPa | 0 mm | - | 398 W/m² | - |
| 1777311474 | 26.67° C | 73% | 1010.8 hPa | 0 mm | - | 719 W/m² | - |
* Rain latest hour (hover to see other rain measurements)
** Current wind speed in m/s (hover to see current wind gust speed)